sensor_id;sensor_type;location;lat;lon;timestamp;temperature;humidity
14555;DHT22;7364;50.870;4.722;2024-01-10T00:00:28;-2.20;95.70
14555;DHT22;7364;50.870;4.722;2024-01-10T00:02:55;-2.10;95.80
14555;DHT22;7364;50.870;4.722;2024-01-10T00:05:23;-2.20;95.90
14555;DHT22;7364;50.870;4.722;2024-01-10T00:07:50;-2.30;96.00
14555;DHT22;7364;50.870;4.722;2024-01-10T00:10:18;-2.30;96.10
14555;DHT22;7364;50.870;4.722;2024-01-10T00:12:47;-2.30;96.10
14555;DHT22;7364;50.870;4.722;2024-01-10T00:15:14;-2.30;96.30
14555;DHT22;7364;50.870;4.722;2024-01-10T00:17:41;-2.40;96.30
14555;DHT22;7364;50.870;4.722;2024-01-10T00:20:09;-2.40;96.50
14555;DHT22;7364;50.870;4.722;2024-01-10T00:22:36;-2.30;96.50
14555;DHT22;7364;50.870;4.722;2024-01-10T00:25:04;-2.20;96.20
14555;DHT22;7364;50.870;4.722;2024-01-10T00:27:32;-2.30;96.30
14555;DHT22;7364;50.870;4.722;2024-01-10T00:29:59;-2.30;96.20
14555;DHT22;7364;50.870;4.722;2024-01-10T00:32:27;-2.30;96.40
14555;DHT22;7364;50.870;4.722;2024-01-10T00:34:54;-2.10;96.10
14555;DHT22;7364;50.870;4.722;2024-01-10T00:37:21;-1.90;95.90
14555;DHT22;7364;50.870;4.722;2024-01-10T00:39:48;-2.10;95.90
14555;DHT22;7364;50.870;4.722;2024-01-10T00:42:15;-2.20;96.00
14555;DHT22;7364;50.870;4.722;2024-01-10T00:44:44;-2.10;96.10
14555;DHT22;7364;50.870;4.722;2024-01-10T00:47:11;-2.30;96.30
14555;DHT22;7364;50.870;4.722;2024-01-10T00:49:38;-2.40;96.50
14555;DHT22;7364;50.870;4.722;2024-01-10T00:52:05;-2.50;96.70
14555;DHT22;7364;50.870;4.722;2024-01-10T00:54:33;-2.50;96.80
14555;DHT22;7364;50.870;4.722;2024-01-10T00:57:00;-2.40;96.70
14555;DHT22;7364;50.870;4.722;2024-01-10T00:59:27;-2.20;96.40
14555;DHT22;7364;50.870;4.722;2024-01-10T01:01:55;-2.10;96.00
14555;DHT22;7364;50.870;4.722;2024-01-10T01:04:22;-2.10;96.10
14555;DHT22;7364;50.870;4.722;2024-01-10T01:06:50;-2.20;96.20
14555;DHT22;7364;50.870;4.722;2024-01-10T01:09:18;-2.40;96.60
14555;DHT22;7364;50.870;4.722;2024-01-10T01:11:45;-2.30;96.70
14555;DHT22;7364;50.870;4.722;2024-01-10T01:14:12;-2.50;96.70
14555;DHT22;7364;50.870;4.722;2024-01-10T01:16:40;-2.60;96.80
14555;DHT22;7364;50.870;4.722;2024-01-10T01:19:08;-2.70;97.10
14555;DHT22;7364;50.870;4.722;2024-01-10T01:21:35;-2.80;97.20
14555;DHT22;7364;50.870;4.722;2024-01-10T01:24:02;-2.80;97.30
14555;DHT22;7364;50.870;4.722;2024-01-10T01:26:30;-2.70;97.30
14555;DHT22;7364;50.870;4.722;2024-01-10T01:28:57;-2.80;97.30
14555;DHT22;7364;50.870;4.722;2024-01-10T01:31:24;-2.70;97.50
14555;DHT22;7364;50.870;4.722;2024-01-10T01:33:51;-2.60;97.40
14555;DHT22;7364;50.870;4.722;2024-01-10T01:36:20;-2.70;97.60
14555;DHT22;7364;50.870;4.722;2024-01-10T01:38:47;-2.70;97.70
14555;DHT22;7364;50.870;4.722;2024-01-10T01:41:14;-2.80;97.70
14555;DHT22;7364;50.870;4.722;2024-01-10T01:43:43;-2.70;97.80
14555;DHT22;7364;50.870;4.722;2024-01-10T01:46:10;-2.60;97.60
14555;DHT22;7364;50.870;4.722;2024-01-10T01:48:37;-2.60;97.60
14555;DHT22;7364;50.870;4.722;2024-01-10T01:51:07;-2.70;97.70
14555;DHT22;7364;50.870;4.722;2024-01-10T01:53:36;-2.80;97.80
14555;DHT22;7364;50.870;4.722;2024-01-10T01:56:06;-2.80;97.90
14555;DHT22;7364;50.870;4.722;2024-01-10T01:58:35;-2.70;98.00
14555;DHT22;7364;50.870;4.722;2024-01-10T02:01:03;-2.70;98.00
14555;DHT22;7364;50.870;4.722;2024-01-10T02:03:31;-2.70;97.90
14555;DHT22;7364;50.870;4.722;2024-01-10T02:05:58;-2.70;97.80
14555;DHT22;7364;50.870;4.722;2024-01-10T02:08:25;-2.80;97.80
14555;DHT22;7364;50.870;4.722;2024-01-10T02:10:54;-2.80;98.00
14555;DHT22;7364;50.870;4.722;2024-01-10T02:13:21;-2.70;98.00
14555;DHT22;7364;50.870;4.722;2024-01-10T02:15:49;-2.90;97.90
14555;DHT22;7364;50.870;4.722;2024-01-10T02:18:16;-2.90;98.00
14555;DHT22;7364;50.870;4.722;2024-01-10T02:20:43;-3.00;98.30
14555;DHT22;7364;50.870;4.722;2024-01-10T02:23:11;-3.00;98.40
14555;DHT22;7364;50.870;4.722;2024-01-10T02:25:40;-3.00;98.60
14555;DHT22;7364;50.870;4.722;2024-01-10T02:28:07;-2.90;98.50
14555;DHT22;7364;50.870;4.722;2024-01-10T02:30:35;-2.90;98.50
14555;DHT22;7364;50.870;4.722;2024-01-10T02:33:02;-2.90;98.50
14555;DHT22;7364;50.870;4.722;2024-01-10T02:35:30;-2.90;98.70
14555;DHT22;7364;50.870;4.722;2024-01-10T02:37:58;-2.90;98.70
14555;DHT22;7364;50.870;4.722;2024-01-10T02:40:26;-2.80;98.80
14555;DHT22;7364;50.870;4.722;2024-01-10T02:42:54;-2.80;98.80
14555;DHT22;7364;50.870;4.722;2024-01-10T02:45:21;-2.80;98.80
14555;DHT22;7364;50.870;4.722;2024-01-10T02:47:48;-2.80;98.80
14555;DHT22;7364;50.870;4.722;2024-01-10T02:50:16;-2.90;98.70
14555;DHT22;7364;50.870;4.722;2024-01-10T02:52:43;-2.90;98.70
14555;DHT22;7364;50.870;4.722;2024-01-10T02:55:10;-2.90;98.70
14555;DHT22;7364;50.870;4.722;2024-01-10T02:57:37;-2.90;98.70
14555;DHT22;7364;50.870;4.722;2024-01-10T03:00:07;-2.90;99.00
14555;DHT22;7364;50.870;4.722;2024-01-10T03:02:35;-2.90;99.10
14555;DHT22;7364;50.870;4.722;2024-01-10T03:05:02;-2.90;99.20
14555;DHT22;7364;50.870;4.722;2024-01-10T03:07:30;-2.90;99.20
14555;DHT22;7364;50.870;4.722;2024-01-10T03:09:57;-3.00;99.30
14555;DHT22;7364;50.870;4.722;2024-01-10T03:12:24;-3.00;99.40
14555;DHT22;7364;50.870;4.722;2024-01-10T03:14:51;-3.00;99.50
14555;DHT22;7364;50.870;4.722;2024-01-10T03:17:20;-3.00;99.60
14555;DHT22;7364;50.870;4.722;2024-01-10T03:19:48;-2.90;99.50
14555;DHT22;7364;50.870;4.722;2024-01-10T03:22:15;-2.80;99.50
14555;DHT22;7364;50.870;4.722;2024-01-10T03:24:42;-2.90;99.50
14555;DHT22;7364;50.870;4.722;2024-01-10T03:27:09;-3.00;99.60
14555;DHT22;7364;50.870;4.722;2024-01-10T03:29:38;-2.90;99.70
14555;DHT22;7364;50.870;4.722;2024-01-10T03:32:05;-2.80;99.50
14555;DHT22;7364;50.870;4.722;2024-01-10T03:34:34;-2.70;99.20
14555;DHT22;7364;50.870;4.722;2024-01-10T03:37:03;-2.50;98.90
14555;DHT22;7364;50.870;4.722;2024-01-10T03:39:31;-2.40;98.70
14555;DHT22;7364;50.870;4.722;2024-01-10T03:42:02;-2.40;98.60
14555;DHT22;7364;50.870;4.722;2024-01-10T03:44:29;-2.40;98.60
14555;DHT22;7364;50.870;4.722;2024-01-10T03:46:57;-2.30;98.50
14555;DHT22;7364;50.870;4.722;2024-01-10T03:49:24;-2.30;98.30
14555;DHT22;7364;50.870;4.722;2024-01-10T03:51:52;-2.50;98.70
14555;DHT22;7364;50.870;4.722;2024-01-10T03:54:20;-2.60;99.20
14555;DHT22;7364;50.870;4.722;2024-01-10T03:56:47;-2.60;98.90
14555;DHT22;7364;50.870;4.722;2024-01-10T03:59:14;-2.70;99.30
14555;DHT22;7364;50.870;4.722;2024-01-10T04:01:41;-2.70;99.00
14555;DHT22;7364;50.870;4.722;2024-01-10T04:04:08;-2.60;98.90
14555;DHT22;7364;50.870;4.722;2024-01-10T04:06:35;-2.50;98.70
14555;DHT22;7364;50.870;4.722;2024-01-10T04:09:04;-2.50;98.70
14555;DHT22;7364;50.870;4.722;2024-01-10T04:11:34;-2.30;98.50
14555;DHT22;7364;50.870;4.722;2024-01-10T04:14:01;-2.20;98.40
14555;DHT22;7364;50.870;4.722;2024-01-10T04:16:29;-2.30;98.30
14555;DHT22;7364;50.870;4.722;2024-01-10T04:18:56;-2.50;98.80
14555;DHT22;7364;50.870;4.722;2024-01-10T04:21:23;-2.60;99.10
14555;DHT22;7364;50.870;4.722;2024-01-10T04:23:50;-2.70;99.20
14555;DHT22;7364;50.870;4.722;2024-01-10T04:26:20;-2.70;99.20
14555;DHT22;7364;50.870;4.722;2024-01-10T04:28:47;-2.70;99.20
14555;DHT22;7364;50.870;4.722;2024-01-10T04:31:14;-2.60;98.90
14555;DHT22;7364;50.870;4.722;2024-01-10T04:33:42;-2.50;98.90
14555;DHT22;7364;50.870;4.722;2024-01-10T04:36:09;-2.30;98.50
14555;DHT22;7364;50.870;4.722;2024-01-10T04:38:36;-2.30;98.40
14555;DHT22;7364;50.870;4.722;2024-01-10T04:41:03;-2.50;98.40
14555;DHT22;7364;50.870;4.722;2024-01-10T04:43:32;-2.60;98.90
14555;DHT22;7364;50.870;4.722;2024-01-10T04:45:59;-2.90;99.10
14555;DHT22;7364;50.870;4.722;2024-01-10T04:48:26;-3.10;99.60
14555;DHT22;7364;50.870;4.722;2024-01-10T04:50:54;-3.10;99.90
14555;DHT22;7364;50.870;4.722;2024-01-10T04:53:21;-3.20;99.90
14555;DHT22;7364;50.870;4.722;2024-01-10T04:55:48;-3.30;99.90
14555;DHT22;7364;50.870;4.722;2024-01-10T04:58:15;-3.30;99.90
14555;DHT22;7364;50.870;4.722;2024-01-10T05:00:44;-3.30;99.90
14555;DHT22;7364;50.870;4.722;2024-01-10T05:03:11;-3.30;99.90
14555;DHT22;7364;50.870;4.722;2024-01-10T05:05:38;-3.30;99.90
14555;DHT22;7364;50.870;4.722;2024-01-10T05:08:06;-3.30;99.90
14555;DHT22;7364;50.870;4.722;2024-01-10T05:10:33;-3.30;99.90
14555;DHT22;7364;50.870;4.722;2024-01-10T05:13:00;-3.40;99.90
14555;DHT22;7364;50.870;4.722;2024-01-10T05:15:28;-3.30;99.90
14555;DHT22;7364;50.870;4.722;2024-01-10T05:17:57;-3.20;99.90
14555;DHT22;7364;50.870;4.722;2024-01-10T05:20:24;-3.30;99.90
14555;DHT22;7364;50.870;4.722;2024-01-10T05:22:51;-3.30;99.90
14555;DHT22;7364;50.870;4.722;2024-01-10T05:25:18;-3.20;99.90
14555;DHT22;7364;50.870;4.722;2024-01-10T05:27:46;-3.00;99.90
14555;DHT22;7364;50.870;4.722;2024-01-10T05:30:12;-3.00;99.70
14555;DHT22;7364;50.870;4.722;2024-01-10T05:32:39;-3.00;99.60
14555;DHT22;7364;50.870;4.722;2024-01-10T05:35:09;-3.10;99.70
14555;DHT22;7364;50.870;4.722;2024-01-10T05:37:36;-3.10;99.90
14555;DHT22;7364;50.870;4.722;2024-01-10T05:40:05;-3.20;99.80
14555;DHT22;7364;50.870;4.722;2024-01-10T05:42:32;-3.20;99.90
14555;DHT22;7364;50.870;4.722;2024-01-10T05:45:00;-3.30;99.90
14555;DHT22;7364;50.870;4.722;2024-01-10T05:47:27;-3.10;99.90
14555;DHT22;7364;50.870;4.722;2024-01-10T05:49:55;-3.10;99.90
14555;DHT22;7364;50.870;4.722;2024-01-10T05:52:23;-3.20;99.90
14555;DHT22;7364;50.870;4.722;2024-01-10T05:54:50;-3.30;99.90
14555;DHT22;7364;50.870;4.722;2024-01-10T05:57:19;-3.30;99.90
14555;DHT22;7364;50.870;4.722;2024-01-10T05:59:47;-3.30;99.90
14555;DHT22;7364;50.870;4.722;2024-01-10T06:02:14;-3.40;99.90
14555;DHT22;7364;50.870;4.722;2024-01-10T06:04:42;-3.20;99.90
14555;DHT22;7364;50.870;4.722;2024-01-10T06:07:09;-3.10;99.90
14555;DHT22;7364;50.870;4.722;2024-01-10T06:09:38;-3.10;99.90
14555;DHT22;7364;50.870;4.722;2024-01-10T06:12:06;-3.10;99.90
14555;DHT22;7364;50.870;4.722;2024-01-10T06:14:33;-3.20;99.90
14555;DHT22;7364;50.870;4.722;2024-01-10T06:17:01;-3.20;99.90
14555;DHT22;7364;50.870;4.722;2024-01-10T06:19:29;-3.10;99.90
14555;DHT22;7364;50.870;4.722;2024-01-10T06:21:57;-3.20;99.90
14555;DHT22;7364;50.870;4.722;2024-01-10T06:24:24;-3.20;99.90
14555;DHT22;7364;50.870;4.722;2024-01-10T06:26:52;-3.00;99.90
14555;DHT22;7364;50.870;4.722;2024-01-10T06:29:20;-2.90;99.90
14555;DHT22;7364;50.870;4.722;2024-01-10T06:31:47;-3.00;99.90
14555;DHT22;7364;50.870;4.722;2024-01-10T06:34:14;-3.20;99.90
14555;DHT22;7364;50.870;4.722;2024-01-10T06:36:41;-3.20;99.90
14555;DHT22;7364;50.870;4.722;2024-01-10T06:39:09;-3.20;99.90
14555;DHT22;7364;50.870;4.722;2024-01-10T06:41:38;-3.10;99.90
14555;DHT22;7364;50.870;4.722;2024-01-10T06:44:07;-3.20;99.90
14555;DHT22;7364;50.870;4.722;2024-01-10T06:46:34;-3.30;99.90
14555;DHT22;7364;50.870;4.722;2024-01-10T06:49:01;-3.30;99.90
14555;DHT22;7364;50.870;4.722;2024-01-10T06:51:29;-3.30;99.90
14555;DHT22;7364;50.870;4.722;2024-01-10T06:53:56;-3.30;99.90
14555;DHT22;7364;50.870;4.722;2024-01-10T06:56:29;-3.20;99.90
14555;DHT22;7364;50.870;4.722;2024-01-10T06:58:56;-3.10;99.90
14555;DHT22;7364;50.870;4.722;2024-01-10T07:01:26;-2.90;99.90
14555;DHT22;7364;50.870;4.722;2024-01-10T07:03:53;-2.50;99.60
14555;DHT22;7364;50.870;4.722;2024-01-10T07:06:21;-2.40;99.00
14555;DHT22;7364;50.870;4.722;2024-01-10T07:08:49;-2.40;99.00
14555;DHT22;7364;50.870;4.722;2024-01-10T07:13:46;-2.80;99.60
14555;DHT22;7364;50.870;4.722;2024-01-10T07:16:13;-3.00;99.80
14555;DHT22;7364;50.870;4.722;2024-01-10T07:18:43;-3.00;99.90
14555;DHT22;7364;50.870;4.722;2024-01-10T07:21:12;-2.80;99.90
14555;DHT22;7364;50.870;4.722;2024-01-10T07:23:39;-2.80;99.80
14555;DHT22;7364;50.870;4.722;2024-01-10T07:26:08;-2.80;99.80
14555;DHT22;7364;50.870;4.722;2024-01-10T07:28:36;-3.00;99.80
14555;DHT22;7364;50.870;4.722;2024-01-10T07:31:04;-3.00;99.80
14555;DHT22;7364;50.870;4.722;2024-01-10T07:33:31;-3.10;99.90
14555;DHT22;7364;50.870;4.722;2024-01-10T07:36:01;-3.10;99.90
14555;DHT22;7364;50.870;4.722;2024-01-10T07:38:28;-2.90;99.90
14555;DHT22;7364;50.870;4.722;2024-01-10T07:40:55;-2.70;99.70
14555;DHT22;7364;50.870;4.722;2024-01-10T07:43:25;-3.00;99.70
14555;DHT22;7364;50.870;4.722;2024-01-10T07:45:53;-3.20;99.90
14555;DHT22;7364;50.870;4.722;2024-01-10T07:48:20;-3.00;99.90
14555;DHT22;7364;50.870;4.722;2024-01-10T07:50:47;-2.90;99.90
14555;DHT22;7364;50.870;4.722;2024-01-10T07:53:16;-2.70;99.70
14555;DHT22;7364;50.870;4.722;2024-01-10T07:55:43;-2.70;99.30
14555;DHT22;7364;50.870;4.722;2024-01-10T07:58:10;-2.50;99.10
14555;DHT22;7364;50.870;4.722;2024-01-10T08:00:38;-2.10;98.30
14555;DHT22;7364;50.870;4.722;2024-01-10T08:03:05;-2.10;98.00
14555;DHT22;7364;50.870;4.722;2024-01-10T08:05:32;-2.30;98.60
14555;DHT22;7364;50.870;4.722;2024-01-10T08:07:59;-2.60;98.80
14555;DHT22;7364;50.870;4.722;2024-01-10T08:10:28;-2.80;99.10
14555;DHT22;7364;50.870;4.722;2024-01-10T08:12:55;-2.60;99.00
14555;DHT22;7364;50.870;4.722;2024-01-10T08:15:23;-2.50;98.90
14555;DHT22;7364;50.870;4.722;2024-01-10T08:17:51;-2.40;99.00
14555;DHT22;7364;50.870;4.722;2024-01-10T08:20:18;-2.50;99.10
14555;DHT22;7364;50.870;4.722;2024-01-10T08:22:46;-2.50;99.70
14555;DHT22;7364;50.870;4.722;2024-01-10T08:25:14;-2.40;99.00
14555;DHT22;7364;50.870;4.722;2024-01-10T08:27:46;-2.50;98.90
14555;DHT22;7364;50.870;4.722;2024-01-10T08:30:14;-2.70;99.30
14555;DHT22;7364;50.870;4.722;2024-01-10T08:32:42;-2.90;99.60
14555;DHT22;7364;50.870;4.722;2024-01-10T08:35:09;-3.00;99.90
14555;DHT22;7364;50.870;4.722;2024-01-10T08:37:37;-3.00;99.90
14555;DHT22;7364;50.870;4.722;2024-01-10T08:40:07;-2.70;99.90
14555;DHT22;7364;50.870;4.722;2024-01-10T08:42:37;-2.80;99.90
14555;DHT22;7364;50.870;4.722;2024-01-10T08:45:07;-2.80;99.90
14555;DHT22;7364;50.870;4.722;2024-01-10T08:47:35;-2.90;99.90
14555;DHT22;7364;50.870;4.722;2024-01-10T08:50:03;-2.80;99.90
14555;DHT22;7364;50.870;4.722;2024-01-10T08:52:31;-2.60;99.90
14555;DHT22;7364;50.870;4.722;2024-01-10T08:54:58;-2.60;99.90
14555;DHT22;7364;50.870;4.722;2024-01-10T08:57:25;-2.40;99.90
14555;DHT22;7364;50.870;4.722;2024-01-10T08:59:53;-2.30;99.90
14555;DHT22;7364;50.870;4.722;2024-01-10T09:02:22;-2.30;99.90
14555;DHT22;7364;50.870;4.722;2024-01-10T09:04:49;-2.20;99.90
14555;DHT22;7364;50.870;4.722;2024-01-10T09:07:16;-2.20;99.90
14555;DHT22;7364;50.870;4.722;2024-01-10T09:09:45;-2.30;99.90
14555;DHT22;7364;50.870;4.722;2024-01-10T09:12:12;-2.00;99.90
14555;DHT22;7364;50.870;4.722;2024-01-10T09:14:40;-1.50;99.40
14555;DHT22;7364;50.870;4.722;2024-01-10T09:17:07;-1.70;99.10
14555;DHT22;7364;50.870;4.722;2024-01-10T09:19:35;-1.30;99.20
14555;DHT22;7364;50.870;4.722;2024-01-10T09:22:03;-1.00;99.20
14555;DHT22;7364;50.870;4.722;2024-01-10T09:24:30;-0.60;98.50
14555;DHT22;7364;50.870;4.722;2024-01-10T09:26:57;-0.60;97.60
14555;DHT22;7364;50.870;4.722;2024-01-10T09:29:24;-0.40;97.60
14555;DHT22;7364;50.870;4.722;2024-01-10T09:31:52;-0.20;96.70
14555;DHT22;7364;50.870;4.722;2024-01-10T09:34:20;-0.10;97.30
14555;DHT22;7364;50.870;4.722;2024-01-10T09:36:48;0.10;96.90
14555;DHT22;7364;50.870;4.722;2024-01-10T09:39:15;0.10;96.10
14555;DHT22;7364;50.870;4.722;2024-01-10T09:41:46;0.40;96.20
14555;DHT22;7364;50.870;4.722;2024-01-10T09:44:14;0.70;96.00
14555;DHT22;7364;50.870;4.722;2024-01-10T09:46:46;1.10;95.90
14555;DHT22;7364;50.870;4.722;2024-01-10T09:49:13;1.20;95.20
14555;DHT22;7364;50.870;4.722;2024-01-10T09:51:41;1.70;94.80
14555;DHT22;7364;50.870;4.722;2024-01-10T09:54:10;2.60;93.70
14555;DHT22;7364;50.870;4.722;2024-01-10T09:56:37;2.70;92.90
14555;DHT22;7364;50.870;4.722;2024-01-10T09:59:04;2.90;92.70
14555;DHT22;7364;50.870;4.722;2024-01-10T10:01:36;2.90;92.30
14555;DHT22;7364;50.870;4.722;2024-01-10T10:04:05;3.60;92.10
14555;DHT22;7364;50.870;4.722;2024-01-10T10:06:34;4.20;90.90
14555;DHT22;7364;50.870;4.722;2024-01-10T10:09:01;4.20;90.60
14555;DHT22;7364;50.870;4.722;2024-01-10T10:11:30;4.60;89.40
14555;DHT22;7364;50.870;4.722;2024-01-10T10:14:00;4.80;86.50
14555;DHT22;7364;50.870;4.722;2024-01-10T10:16:40;4.90;86.70
14555;DHT22;7364;50.870;4.722;2024-01-10T10:19:07;5.30;83.30
14555;DHT22;7364;50.870;4.722;2024-01-10T10:21:37;5.60;81.50
14555;DHT22;7364;50.870;4.722;2024-01-10T10:24:05;5.40;81.30
14555;DHT22;7364;50.870;4.722;2024-01-10T10:26:34;5.90;79.50
14555;DHT22;7364;50.870;4.722;2024-01-10T10:29:02;6.00;78.90
14555;DHT22;7364;50.870;4.722;2024-01-10T10:31:30;5.60;79.10
14555;DHT22;7364;50.870;4.722;2024-01-10T10:33:59;5.90;80.20
14555;DHT22;7364;50.870;4.722;2024-01-10T10:36:28;6.40;79.70
14555;DHT22;7364;50.870;4.722;2024-01-10T10:38:59;6.40;78.30
14555;DHT22;7364;50.870;4.722;2024-01-10T10:41:30;6.20;79.60
14555;DHT22;7364;50.870;4.722;2024-01-10T10:44:00;6.60;77.60
14555;DHT22;7364;50.870;4.722;2024-01-10T10:46:31;6.90;77.90
14555;DHT22;7364;50.870;4.722;2024-01-10T10:48:59;6.70;77.70
14555;DHT22;7364;50.870;4.722;2024-01-10T10:51:33;6.80;77.80
14555;DHT22;7364;50.870;4.722;2024-01-10T10:54:02;7.10;77.10
14555;DHT22;7364;50.870;4.722;2024-01-10T10:56:33;6.40;77.00
14555;DHT22;7364;50.870;4.722;2024-01-10T10:59:03;5.40;77.80
14555;DHT22;7364;50.870;4.722;2024-01-10T11:01:31;5.80;78.10
14555;DHT22;7364;50.870;4.722;2024-01-10T11:03:59;6.80;76.90
14555;DHT22;7364;50.870;4.722;2024-01-10T11:06:27;7.40;74.20
14555;DHT22;7364;50.870;4.722;2024-01-10T11:08:59;6.70;75.00
14555;DHT22;7364;50.870;4.722;2024-01-10T11:11:37;6.80;74.40
14555;DHT22;7364;50.870;4.722;2024-01-10T11:14:24;7.40;74.50
14555;DHT22;7364;50.870;4.722;2024-01-10T11:20:08;8.10;73.70
14555;DHT22;7364;50.870;4.722;2024-01-10T11:25:42;6.90;72.80
14555;DHT22;7364;50.870;4.722;2024-01-10T11:28:12;7.90;70.50
14555;DHT22;7364;50.870;4.722;2024-01-10T11:30:48;7.60;70.00
14555;DHT22;7364;50.870;4.722;2024-01-10T11:33:22;7.70;68.40
14555;DHT22;7364;50.870;4.722;2024-01-10T11:36:08;8.10;66.90
14555;DHT22;7364;50.870;4.722;2024-01-10T11:38:43;8.30;66.70
14555;DHT22;7364;50.870;4.722;2024-01-10T11:41:11;8.10;67.20
14555;DHT22;7364;50.870;4.722;2024-01-10T11:43:39;7.60;67.50
14555;DHT22;7364;50.870;4.722;2024-01-10T11:46:08;7.90;67.20
14555;DHT22;7364;50.870;4.722;2024-01-10T11:48:37;8.20;66.50
14555;DHT22;7364;50.870;4.722;2024-01-10T11:51:07;8.30;65.70
14555;DHT22;7364;50.870;4.722;2024-01-10T11:53:39;8.70;65.90
14555;DHT22;7364;50.870;4.722;2024-01-10T11:56:10;8.70;66.30
14555;DHT22;7364;50.870;4.722;2024-01-10T11:58:54;9.10;65.80
14555;DHT22;7364;50.870;4.722;2024-01-10T12:01:23;8.80;63.60
14555;DHT22;7364;50.870;4.722;2024-01-10T12:03:52;8.10;63.60
14555;DHT22;7364;50.870;4.722;2024-01-10T12:06:21;7.70;64.20
14555;DHT22;7364;50.870;4.722;2024-01-10T12:08:48;7.90;63.70
14555;DHT22;7364;50.870;4.722;2024-01-10T12:11:16;7.70;63.70
14555;DHT22;7364;50.870;4.722;2024-01-10T12:13:44;6.70;64.00
14555;DHT22;7364;50.870;4.722;2024-01-10T12:16:12;5.70;67.90
14555;DHT22;7364;50.870;4.722;2024-01-10T12:18:42;5.20;68.20
14555;DHT22;7364;50.870;4.722;2024-01-10T12:21:09;5.30;67.70
14555;DHT22;7364;50.870;4.722;2024-01-10T12:23:38;5.10;68.20
14555;DHT22;7364;50.870;4.722;2024-01-10T12:26:07;4.40;69.80
14555;DHT22;7364;50.870;4.722;2024-01-10T12:28:36;4.00;71.30
14555;DHT22;7364;50.870;4.722;2024-01-10T12:31:03;3.90;72.90
14555;DHT22;7364;50.870;4.722;2024-01-10T12:33:33;4.00;73.10
14555;DHT22;7364;50.870;4.722;2024-01-10T12:36:09;3.70;73.40
14555;DHT22;7364;50.870;4.722;2024-01-10T12:38:38;3.60;74.60
14555;DHT22;7364;50.870;4.722;2024-01-10T12:41:06;3.60;75.40
14555;DHT22;7364;50.870;4.722;2024-01-10T12:43:35;3.70;74.60
14555;DHT22;7364;50.870;4.722;2024-01-10T12:46:03;3.50;76.40
14555;DHT22;7364;50.870;4.722;2024-01-10T12:48:30;3.60;74.60
14555;DHT22;7364;50.870;4.722;2024-01-10T12:50:59;3.60;74.60
14555;DHT22;7364;50.870;4.722;2024-01-10T12:53:29;3.50;74.40
14555;DHT22;7364;50.870;4.722;2024-01-10T12:55:57;3.50;74.10
14555;DHT22;7364;50.870;4.722;2024-01-10T12:58:24;3.20;75.50
14555;DHT22;7364;50.870;4.722;2024-01-10T13:00:52;3.00;77.60
14555;DHT22;7364;50.870;4.722;2024-01-10T13:03:19;2.90;77.60
14555;DHT22;7364;50.870;4.722;2024-01-10T13:05:46;3.10;77.50
14555;DHT22;7364;50.870;4.722;2024-01-10T13:08:14;3.30;76.20
14555;DHT22;7364;50.870;4.722;2024-01-10T13:10:42;3.40;76.50
14555;DHT22;7364;50.870;4.722;2024-01-10T13:13:11;3.40;76.30
14555;DHT22;7364;50.870;4.722;2024-01-10T13:15:38;2.90;78.00
14555;DHT22;7364;50.870;4.722;2024-01-10T13:18:06;3.00;77.90
14555;DHT22;7364;50.870;4.722;2024-01-10T13:20:35;3.00;78.90
14555;DHT22;7364;50.870;4.722;2024-01-10T13:23:03;3.00;80.20
14555;DHT22;7364;50.870;4.722;2024-01-10T13:25:31;3.10;80.70
14555;DHT22;7364;50.870;4.722;2024-01-10T13:27:59;3.10;80.60
14555;DHT22;7364;50.870;4.722;2024-01-10T13:30:27;3.20;79.00
14555;DHT22;7364;50.870;4.722;2024-01-10T13:32:54;3.10;80.60
14555;DHT22;7364;50.870;4.722;2024-01-10T13:35:21;3.00;80.20
14555;DHT22;7364;50.870;4.722;2024-01-10T13:37:49;2.90;80.50
14555;DHT22;7364;50.870;4.722;2024-01-10T13:40:17;3.00;80.80
14555;DHT22;7364;50.870;4.722;2024-01-10T13:42:50;2.90;83.00
14555;DHT22;7364;50.870;4.722;2024-01-10T13:45:19;3.00;82.20
14555;DHT22;7364;50.870;4.722;2024-01-10T13:47:47;2.90;81.80
14555;DHT22;7364;50.870;4.722;2024-01-10T13:50:15;3.10;81.80
14555;DHT22;7364;50.870;4.722;2024-01-10T13:52:46;3.20;81.40
14555;DHT22;7364;50.870;4.722;2024-01-10T13:55:20;3.20;80.80
14555;DHT22;7364;50.870;4.722;2024-01-10T13:57:49;3.20;82.10
14555;DHT22;7364;50.870;4.722;2024-01-10T14:00:19;3.20;80.60
14555;DHT22;7364;50.870;4.722;2024-01-10T14:02:49;3.20;81.60
14555;DHT22;7364;50.870;4.722;2024-01-10T14:05:21;3.00;83.00
14555;DHT22;7364;50.870;4.722;2024-01-10T14:07:51;2.90;83.60
14555;DHT22;7364;50.870;4.722;2024-01-10T14:10:18;2.90;83.00
14555;DHT22;7364;50.870;4.722;2024-01-10T14:12:45;2.90;82.70
14555;DHT22;7364;50.870;4.722;2024-01-10T14:15:13;2.90;83.20
14555;DHT22;7364;50.870;4.722;2024-01-10T14:17:42;2.90;83.40
14555;DHT22;7364;50.870;4.722;2024-01-10T14:20:10;3.00;83.20
14555;DHT22;7364;50.870;4.722;2024-01-10T14:22:40;2.80;83.10
14555;DHT22;7364;50.870;4.722;2024-01-10T14:25:08;2.40;84.10
14555;DHT22;7364;50.870;4.722;2024-01-10T14:27:37;2.60;84.30
14555;DHT22;7364;50.870;4.722;2024-01-10T14:30:13;2.40;83.50
14555;DHT22;7364;50.870;4.722;2024-01-10T14:32:42;1.90;83.60
14555;DHT22;7364;50.870;4.722;2024-01-10T14:35:13;2.00;85.50
14555;DHT22;7364;50.870;4.722;2024-01-10T14:37:40;2.30;84.80
14555;DHT22;7364;50.870;4.722;2024-01-10T14:40:09;2.60;83.70
14555;DHT22;7364;50.870;4.722;2024-01-10T14:42:37;2.70;82.50
14555;DHT22;7364;50.870;4.722;2024-01-10T14:45:04;2.70;83.90
14555;DHT22;7364;50.870;4.722;2024-01-10T14:47:32;2.60;85.00
14555;DHT22;7364;50.870;4.722;2024-01-10T14:50:00;2.80;83.00
14555;DHT22;7364;50.870;4.722;2024-01-10T14:52:30;2.60;83.80
14555;DHT22;7364;50.870;4.722;2024-01-10T14:54:57;3.00;83.00
14555;DHT22;7364;50.870;4.722;2024-01-10T14:57:25;3.00;82.70
14555;DHT22;7364;50.870;4.722;2024-01-10T14:59:52;3.00;82.30
14555;DHT22;7364;50.870;4.722;2024-01-10T15:02:19;3.00;82.10
14555;DHT22;7364;50.870;4.722;2024-01-10T15:04:46;2.80;83.00
14555;DHT22;7364;50.870;4.722;2024-01-10T15:07:15;2.80;83.30
14555;DHT22;7364;50.870;4.722;2024-01-10T15:09:43;2.70;84.10
14555;DHT22;7364;50.870;4.722;2024-01-10T15:12:10;2.50;84.20
14555;DHT22;7364;50.870;4.722;2024-01-10T15:14:38;2.60;84.80
14555;DHT22;7364;50.870;4.722;2024-01-10T15:17:04;2.60;84.40
14555;DHT22;7364;50.870;4.722;2024-01-10T15:19:34;2.60;84.30
14555;DHT22;7364;50.870;4.722;2024-01-10T15:22:01;2.40;84.80
14555;DHT22;7364;50.870;4.722;2024-01-10T15:24:30;2.40;85.10
14555;DHT22;7364;50.870;4.722;2024-01-10T15:26:57;2.20;85.10
14555;DHT22;7364;50.870;4.722;2024-01-10T15:29:27;2.30;84.40
14555;DHT22;7364;50.870;4.722;2024-01-10T15:31:55;2.20;85.40
14555;DHT22;7364;50.870;4.722;2024-01-10T15:34:22;2.20;85.60
14555;DHT22;7364;50.870;4.722;2024-01-10T15:36:51;2.10;86.40
14555;DHT22;7364;50.870;4.722;2024-01-10T15:39:18;2.00;87.80
14555;DHT22;7364;50.870;4.722;2024-01-10T15:41:48;1.90;88.00
14555;DHT22;7364;50.870;4.722;2024-01-10T15:44:16;1.70;88.70
14555;DHT22;7364;50.870;4.722;2024-01-10T15:46:43;1.70;89.30
14555;DHT22;7364;50.870;4.722;2024-01-10T15:49:11;1.80;88.80
14555;DHT22;7364;50.870;4.722;2024-01-10T15:51:38;2.00;88.20
14555;DHT22;7364;50.870;4.722;2024-01-10T15:54:06;2.10;88.60
14555;DHT22;7364;50.870;4.722;2024-01-10T15:56:33;2.00;88.40
14555;DHT22;7364;50.870;4.722;2024-01-10T15:59:06;1.70;88.80
14555;DHT22;7364;50.870;4.722;2024-01-10T16:01:33;1.70;89.50
14555;DHT22;7364;50.870;4.722;2024-01-10T16:04:00;1.80;89.10
14555;DHT22;7364;50.870;4.722;2024-01-10T16:06:28;2.00;88.80